Pagina principale
METAR-TAF:

METAR-TAF

Aeroporti :

Bric della Croce

Torino, Italia

latitudine: 45-02N, longitudine: 007-44E, altezza: 709 m

Osservazione

Il bollettino è stato emesso 7 ore e 1 minuti fa, alle 04:55 UTC
Vento 5 kt da sud/sud-est
Temperature 23°C
Umidità 89%
Pressione 1019 hPa
Visibilità 10 km o più
nessuna nube inferiore a 1500 m e nessun cumulonembo

METAR: LIMK 210455Z 16005KT CAVOK 23/21 Q1019 RMK SKC VAL NIL VIS MIN 9999

Ora: 13:56 (11:56 UTC)


TAF: mancante

Osservazioni e previsioni meteorologiche di più di 4000 aeroporti (messaggi METAR e TAF).

Le stazioni disponibili sono rappresentate dai dischi gialli e rossi sulla carta.

Puntare il mouse per vedere il nome della stazione.

Clicca sopra per visualizzare le osservazioni e previsioni meteorologiche.

Per cambiare la mappa : fare clic sui pulsanti verdi con una croce nera per ingrandire, il pulsante verde con un trattino per diminuire, o sulla freccia verde per le mappe adiacenti.


METAR-TAF: